Air Navigation Services of Czech Republic
Airport: LKNA Updated:  07.02.2023 15:30:32  UTC
 METAR LKNA 07.02. 15:30 ...
METAR LKNA 071530Z 33005KT CAVOK M02/M09 Q1037 NOSIG RMK BLU BLU=
 TAF LKNA 07.02. 11:00 ...
TAF LKNA 071100Z 0712/0812 02006KT CAVOK      PROB30 TEMPO 0803/0808 7000 BKN020=